Terlet Airfield

EHTL · Gelderland, 荷兰

2022年12月6日 15:002022年12月7日 03:00有效
时间
星期二
15:00
星期二
16:00
星期二
17:00
星期二
18:00
星期二
19:00
星期二
20:00
星期二
21:00
30%
星期二
22:00
30%
星期二
23:00
星期三
00:00
星期三
01:00
星期三
02:00
代码
VFR
VFR
VFR
VFR
VFR
VFR
VFR
VFR
VFR
VFR
VFR
VFR
天气
碎云
碎云
碎云
碎云
碎云
碎云
碎云
碎云
碎云
碎云
碎云
碎云
能见度
10 km+
10 km+
10 km+
10 km+
10 km+
10 km+
10 km+
10 km+
10 km+
10 km+
10 km+
10 km+
天花板
3.000 ft
3.000 ft
3.000 ft
3.000 ft
3.000 ft
3.000 ft
3.000 ft
3.000 ft
3.000 ft
3.000 ft
3.000 ft
3.000 ft
270°
270°
270°
270°
270°
270°
270°
270°
270°
270°
270°
270°
270°
270°
270°
270°
270°
270°
270°
270°
270°
270°
270°
270°
速度
5 kt
5 kt
5 kt
5 kt
5 kt
5 kt
5 kt
5 kt
5 kt
5 kt
5 kt
5 kt
阵风
温度/星期日
16:28

原版的

TAF EHVK 061336Z 0614/0702 27005KT 9999 BKN030
PROB30 TEMPO 0620/0622 FEW015 SCT020CB

TAF Terlet Airfield

Terlet Airfield是,荷兰中的格利德菲尔德。 该机场有7条跑道: 4C/22C, 4L/22R, 4R/22L, 12/30, 14L/32R, 14R/32L 和 14/32. 该领域的国际民航组织标志是EHTL.

这份报告是针对2022年12月6日 14:36, 当地时间在Volkel Air Base进行的。 从2022年12月6日 15:00到2022年12月7日 03:00, 当地时间有效.

预报

  • 在星期二 15:00和星期三 03:00之间

    • 风: 风来自270°方向,速度为5 kt。
    • 能见度: 10 km 或者更多
    • 乌云: 碎云在3.000 ft的高度.

  • 暂时在星期二 21:00和23:00之间 ({一个机会)

    • 乌云: 几云在1.500 ft的高度 和 疏云,零星散落的云朵 积雨云在2.000 ft的高度.

白天

今天,太阳从08:28升起,在16:25降落。 这适用于Terlet Airfield,世界夏令时可能有所不同。 当地时间与世界标准时间之间的时差为+1 小时。 当前,没有夏令时有效。

我们和第三方通过cookies跟踪您在我们网站上的互联网行为。如果你继续,我们认为你同意我们的饼干政策